Time;durP1;ratioP1;P1;durP2;ratioP2;P2;SDS_P1;SDS_P2;PMS_P1;PMS_P2;Temp;Humidity;BMP_temperature;BMP_pressure;BME280_temperature;BME280_humidity;BME280_pressure;Samples;Min_cycle;Max_cycle;Signal;HPM_P1;HPM_P2
2021/06/18 00:00:19;;;;;;;12.90;9.57;;;;;;;18.63;62.18;99216.03;124690;1093;64255;-81
2021/06/18 00:03:06;;;;;;;10.57;9.27;;;;;;;18.60;62.80;99210.94;124743;1093;65087;-82
2021/06/18 00:05:34;;;;;;;10.83;9.13;;;;;;;18.59;62.60;99218.19;124704;1093;64321;-82
2021/06/18 00:08:01;;;;;;;9.93;8.77;;;;;;;18.58;62.82;99213.77;124706;1093;64310;-81
2021/06/18 00:10:28;;;;;;;11.23;10.00;;;;;;;18.58;62.57;99211.06;124782;1093;64309;-81
2021/06/18 00:12:56;;;;;;;10.97;9.83;;;;;;;18.55;63.21;99210.53;124714;1093;64203;-82
2021/06/18 00:15:24;;;;;;;10.17;9.23;;;;;;;18.50;62.93;99210.12;124682;1096;64380;-82
2021/06/18 00:17:52;;;;;;;11.90;10.73;;;;;;;18.45;62.78;99209.70;124724;1093;64437;-81
2021/06/18 00:20:20;;;;;;;14.13;9.70;;;;;;;18.42;63.63;99209.00;124675;1093;64377;-81
2021/06/18 00:22:47;;;;;;;10.73;9.63;;;;;;;18.40;63.53;99210.14;124696;1093;64299;-82
2021/06/18 00:25:14;;;;;;;9.27;8.37;;;;;;;18.37;63.43;99205.89;124731;1093;64266;-82
2021/06/18 00:27:42;;;;;;;10.05;9.00;;;;;;;18.37;63.32;99207.74;124729;1093;64414;-81
2021/06/18 00:30:11;;;;;;;10.43;9.13;;;;;;;18.36;63.56;99206.05;124704;1092;64395;-81
2021/06/18 00:32:38;;;;;;;11.03;9.43;;;;;;;18.33;63.59;99198.27;124788;1096;64422;-81
2021/06/18 00:35:06;;;;;;;11.17;10.07;;;;;;;18.33;64.32;99195.56;124701;1093;64843;-82
2021/06/18 00:37:34;;;;;;;12.45;10.20;;;;;;;18.30;63.93;99207.50;124729;1093;64290;-81
2021/06/18 00:40:06;;;;;;;11.47;10.27;;;;;;;18.25;64.30;99198.15;124693;1093;64271;-81
2021/06/18 00:42:34;;;;;;;11.93;10.13;;;;;;;18.19;64.46;99196.86;124717;1093;64808;-82
2021/06/18 00:45:02;;;;;;;11.00;9.90;;;;;;;18.14;64.80;99199.14;124694;1093;64307;-82
2021/06/18 00:47:29;;;;;;;10.83;9.70;;;;;;;18.12;64.39;99196.61;124737;1093;64378;-82
2021/06/18 00:49:56;;;;;;;11.30;10.10;;;;;;;18.09;64.69;99196.91;124699;1093;64223;-82
2021/06/18 00:52:24;;;;;;;10.77;8.93;;;;;;;18.07;64.94;99193.50;124786;1093;64393;-81
2021/06/18 00:54:51;;;;;;;10.40;9.40;;;;;;;18.07;65.05;99192.66;124784;1093;64335;-81
2021/06/18 00:57:19;;;;;;;11.87;10.33;;;;;;;18.05;64.88;99195.48;124790;1096;64341;-81
2021/06/18 00:59:46;;;;;;;11.90;9.75;;;;;;;18.03;64.81;99194.77;124772;1093;65538;-81
2021/06/18 01:02:14;;;;;;;11.13;10.03;;;;;;;18.03;65.38;99193.92;124701;1093;64216;-81
2021/06/18 01:04:42;;;;;;;11.30;10.10;;;;;;;17.99;65.41;99188.83;124720;1093;64735;-81
2021/06/18 01:07:28;;;;;;;12.73;10.30;;;;;;;17.97;65.55;99195.36;124715;1095;64345;-81
2021/06/18 01:10:04;;;;;;;10.20;9.20;;;;;;;17.95;65.78;99192.80;124685;1092;64430;-82
2021/06/18 01:12:39;;;;;;;10.27;9.27;;;;;;;17.91;65.49;99188.70;124731;1093;64280;-81
2021/06/18 01:15:15;;;;;;;10.93;9.70;;;;;;;17.90;65.86;99192.38;124750;1093;64737;-81
2021/06/18 01:17:55;;;;;;;13.10;10.40;;;;;;;17.90;65.90;99188.84;124705;1093;64278;-82
2021/06/18 01:21:00;;;;;;;11.35;9.80;;;;;;;17.90;66.22;99184.29;124717;1093;64337;-82
2021/06/18 01:23:28;;;;;;;11.57;10.37;;;;;;;17.85;65.61;99177.63;124717;1093;64314;-82
2021/06/18 01:26:04;;;;;;;11.63;10.37;;;;;;;17.78;66.45;99183.58;124700;1093;64769;-81
2021/06/18 01:28:46;;;;;;;12.30;11.10;;;;;;;17.71;66.33;99186.99;124725;1093;64277;-82
2021/06/18 01:31:18;;;;;;;11.40;10.30;;;;;;;17.63;66.81;99176.92;124725;1093;64293;-81
2021/06/18 01:33:50;;;;;;;12.03;10.67;;;;;;;17.59;66.92;99177.34;124732;1093;64319;-81
2021/06/18 01:36:19;;;;;;;12.43;11.23;;;;;;;17.56;67.04;99170.39;124742;1093;64388;-82
2021/06/18 01:38:48;;;;;;;11.87;10.40;;;;;;;17.55;67.51;99166.02;124755;1093;64194;-80
2021/06/18 01:41:21;;;;;;;11.17;10.07;;;;;;;17.60;67.68;99171.83;124752;1091;64393;-80
2021/06/18 01:43:52;;;;;;;12.23;10.13;;;;;;;17.63;67.34;99178.77;124812;1093;64277;-81
2021/06/18 01:46:24;;;;;;;11.83;10.63;;;;;;;17.60;67.07;99179.06;124737;1093;64289;-79
2021/06/18 01:48:56;;;;;;;12.60;11.30;;;;;;;17.52;67.33;99175.23;124789;1093;64434;-81
2021/06/18 01:51:25;;;;;;;12.50;11.15;;;;;;;17.50;67.65;99179.91;124692;1093;64387;-81
2021/06/18 01:53:56;;;;;;;12.30;10.65;;;;;;;17.48;67.48;99181.04;124794;1093;64201;-80
2021/06/18 01:56:25;;;;;;;14.77;10.77;;;;;;;17.45;67.59;99181.33;124796;1093;64268;-82
2021/06/18 01:58:57;;;;;;;12.17;10.77;;;;;;;17.45;67.87;99178.63;124690;1096;64408;-81
2021/06/18 02:01:30;;;;;;;14.80;10.47;;;;;;;17.45;67.85;99171.39;124848;1093;64308;-81
2021/06/18 02:03:58;;;;;;;12.30;11.00;;;;;;;17.46;67.85;99180.36;124834;1093;64258;-81
2021/06/18 02:06:29;;;;;;;12.85;11.65;;;;;;;17.43;67.79;99178.80;124828;1093;64293;-80
2021/06/18 02:09:00;;;;;;;12.43;11.23;;;;;;;17.44;68.20;99188.56;124930;1093;64275;-80
2021/06/18 02:11:29;;;;;;;13.43;11.97;;;;;;;17.40;68.08;99184.44;124809;1092;64348;-81
2021/06/18 02:13:58;;;;;;;15.37;11.17;;;;;;;17.39;67.64;99181.91;124824;1093;64278;-81
2021/06/18 02:16:28;;;;;;;12.83;10.90;;;;;;;17.38;67.96;99190.96;124859;1093;64277;-81
2021/06/18 02:18:58;;;;;;;13.80;10.70;;;;;;;17.32;68.13;99189.69;124704;1093;64282;-80
2021/06/18 02:21:26;;;;;;;13.80;11.03;;;;;;;17.29;68.42;99196.20;124715;1096;64322;-80
2021/06/18 02:23:57;;;;;;;12.10;10.50;;;;;;;17.24;68.58;99195.77;124645;1093;64344;-79
2021/06/18 02:26:26;;;;;;;12.00;10.37;;;;;;;17.20;68.25;99193.52;124620;1093;64392;-79
2021/06/18 02:28:54;;;;;;;16.37;11.33;;;;;;;17.18;68.46;99198.19;124634;1093;64251;-79
2021/06/18 02:31:24;;;;;;;13.17;11.20;;;;;;;17.14;68.65;99192.25;124724;1093;64192;-80
2021/06/18 02:33:52;;;;;;;11.93;10.83;;;;;;;17.10;68.61;99204.27;124700;1092;64224;-81
2021/06/18 02:36:21;;;;;;;14.80;11.60;;;;;;;17.08;68.93;99192.78;124777;1093;64345;-80
2021/06/18 02:38:49;;;;;;;12.33;11.13;;;;;;;17.06;68.94;99189.37;124702;1093;64756;-81
2021/06/18 02:41:18;;;;;;;11.37;10.10;;;;;;;17.05;68.89;99191.22;124732;1093;64282;-79
2021/06/18 02:43:45;;;;;;;13.23;10.90;;;;;;;17.09;69.09;99194.50;124710;1096;64363;-79
2021/06/18 02:46:46;;;;;;;14.07;12.43;;;;;;;17.11;69.21;99196.07;124635;1093;64422;-79
2021/06/18 02:49:18;;;;;;;15.63;12.07;;;;;;;17.14;69.13;99189.55;124674;1096;64303;-80
2021/06/18 02:52:00;;;;;;;14.40;12.77;;;;;;;17.18;69.48;99200.89;124772;1093;64407;-80
2021/06/18 02:54:35;;;;;;;14.37;12.10;;;;;;;17.21;69.38;99203.30;124756;1096;64399;-80
2021/06/18 02:57:11;;;;;;;13.93;12.33;;;;;;;17.24;69.19;99203.01;124691;1093;64631;-80
2021/06/18 02:59:55;;;;;;;11.60;10.40;;;;;;;17.26;68.88;99206.42;124659;1093;64406;-81
2021/06/18 03:02:30;;;;;;;12.43;11.13;;;;;;;17.31;68.88;99202.31;124628;1093;64290;-81
2021/06/18 03:05:00;;;;;;;12.07;10.33;;;;;;;17.38;68.83;99209.82;124769;1093;64272;-80
2021/06/18 03:07:31;;;;;;;12.53;10.73;;;;;;;17.39;68.90;99208.84;124708;1093;64274;-80
2021/06/18 03:10:02;;;;;;;13.53;11.37;;;;;;;17.43;69.00;99212.95;124715;1093;64321;-80
2021/06/18 03:12:32;;;;;;;12.87;11.10;;;;;;;17.47;68.67;99206.30;124717;1093;64251;-80
2021/06/18 03:15:08;;;;;;;13.30;11.77;;;;;;;17.52;68.73;99207.56;124754;1093;64197;-81
2021/06/18 03:17:42;;;;;;;14.70;11.33;;;;;;;17.61;68.86;99199.63;124786;1093;64386;-81
2021/06/18 03:20:19;;;;;;;12.67;11.47;;;;;;;17.65;68.58;99201.05;124661;1093;64233;-79
2021/06/18 03:22:51;;;;;;;13.33;11.43;;;;;;;17.72;68.48;99196.77;124661;1093;64414;-79
2021/06/18 03:25:19;;;;;;;12.93;11.03;;;;;;;17.81;68.34;99211.28;124768;1093;64670;-79
2021/06/18 03:27:48;;;;;;;13.37;11.17;;;;;;;17.91;68.27;99214.83;124692;1093;64437;-80
2021/06/18 03:30:16;;;;;;;12.00;10.80;;;;;;;18.89;67.29;99201.88;124793;1093;64294;-80
2021/06/18 03:32:46;;;;;;;11.30;10.20;;;;;;;19.85;65.68;99200.34;124714;1096;64788;-80
2021/06/18 03:35:15;;;;;;;13.67;11.60;;;;;;;20.66;63.78;99212.70;124712;1093;64255;-79
2021/06/18 03:37:43;;;;;;;11.07;9.97;;;;;;;21.35;62.56;99201.75;124772;1093;64377;-80
2021/06/18 03:40:10;;;;;;;11.77;10.67;;;;;;;21.95;61.04;99206.91;124659;1093;64297;-79
2021/06/18 03:42:38;;;;;;;11.97;10.77;;;;;;;22.47;59.76;99202.97;124729;1093;64422;-82
2021/06/18 03:45:07;;;;;;;11.60;10.47;;;;;;;22.92;58.74;99205.00;124670;1093;64266;-80
2021/06/18 03:47:36;;;;;;;11.43;10.30;;;;;;;23.38;57.88;99204.27;124719;1095;64364;-80
2021/06/18 03:50:05;;;;;;;12.50;10.73;;;;;;;23.73;56.38;99202.87;124755;1093;64379;-81
2021/06/18 03:52:33;;;;;;;11.15;10.10;;;;;;;24.05;55.05;99204.45;124705;1093;64294;-81
2021/06/18 03:55:00;;;;;;;11.97;10.73;;;;;;;24.42;54.47;99200.00;124727;1093;65839;-82
2021/06/18 03:57:28;;;;;;;12.00;10.80;;;;;;;24.74;53.63;99203.42;124715;1093;64274;-82
2021/06/18 03:59:58;;;;;;;11.37;10.37;;;;;;;25.09;52.94;99204.52;124652;1093;64271;-82
2021/06/18 04:02:26;;;;;;;11.40;10.33;;;;;;;25.40;51.25;99206.98;124801;1093;64300;-83
2021/06/18 04:04:55;;;;;;;11.17;10.20;;;;;;;25.66;51.27;99208.31;124713;1093;64275;-83
2021/06/18 04:07:23;;;;;;;11.67;10.33;;;;;;;25.98;50.45;99203.38;124763;1093;64303;-82
2021/06/18 04:09:52;;;;;;;10.37;9.47;;;;;;;26.39;50.00;99216.33;124711;1093;64465;-83
2021/06/18 04:12:20;;;;;;;10.70;9.70;;;;;;;26.62;49.07;99211.47;124717;1093;64274;-83
2021/06/18 04:14:48;;;;;;;10.13;9.33;;;;;;;26.86;48.50;99220.22;124686;1093;64274;-82
2021/06/18 04:17:15;;;;;;;12.75;9.70;;;;;;;26.98;48.12;99218.58;124656;1093;64380;-81
2021/06/18 04:19:45;;;;;;;12.37;10.50;;;;;;;27.18;47.16;99212.40;124656;1096;64319;-82
2021/06/18 04:22:19;;;;;;;11.20;9.70;;;;;;;27.37;47.03;99214.34;124706;1093;64303;-83
2021/06/18 04:24:47;;;;;;;10.85;9.75;;;;;;;27.49;46.38;99209.09;124746;1093;64220;-83
2021/06/18 04:27:14;;;;;;;10.33;9.43;;;;;;;27.70;45.98;99206.22;124733;1093;64776;-83
2021/06/18 04:29:41;;;;;;;11.10;10.10;;;;;;;27.72;45.39;99214.20;124666;1096;64252;-83
2021/06/18 04:32:08;;;;;;;12.90;9.85;;;;;;;28.04;45.28;99217.22;124704;1093;64411;-83
2021/06/18 04:34:35;;;;;;;12.73;9.80;;;;;;;28.31;44.08;99215.33;124761;1093;64277;-82
2021/06/18 04:37:03;;;;;;;12.27;10.67;;;;;;;28.40;43.57;99217.62;124692;1093;64322;-84
2021/06/18 04:39:30;;;;;;;11.37;9.90;;;;;;;28.36;43.99;99215.54;124708;1093;64216;-83
2021/06/18 04:42:00;;;;;;;12.30;10.35;;;;;;;28.48;42.63;99219.33;124717;1093;64282;-83
2021/06/18 04:44:29;;;;;;;11.30;10.27;;;;;;;28.32;42.12;99215.10;124666;1093;64357;-83
2021/06/18 04:46:56;;;;;;;12.57;10.57;;;;;;;28.00;42.18;99217.64;124743;1093;64291;-82
2021/06/18 04:49:23;;;;;;;10.87;9.83;;;;;;;27.99;42.44;99221.45;124685;1093;64278;-82
2021/06/18 04:51:52;;;;;;;10.63;9.63;;;;;;;28.11;42.66;99218.07;124644;1093;64223;-84
2021/06/18 04:54:21;;;;;;;9.93;9.07;;;;;;;28.17;42.32;99211.73;124737;1093;64271;-83
2021/06/18 04:56:49;;;;;;;11.03;9.93;;;;;;;28.26;42.06;99215.96;124693;1096;64519;-83
2021/06/18 04:59:19;;;;;;;11.95;10.40;;;;;;;28.48;42.03;99218.49;124688;1093;64251;-82
2021/06/18 05:01:47;;;;;;;11.50;10.60;;;;;;;28.48;41.43;99215.75;124674;1093;64229;-83
2021/06/18 05:04:14;;;;;;;11.70;10.60;;;;;;;28.52;41.82;99217.02;124669;1093;64271;-84
2021/06/18 05:06:42;;;;;;;12.33;10.40;;;;;;;28.62;42.00;99221.01;124607;1093;64306;-84
2021/06/18 05:09:09;;;;;;;11.80;10.80;;;;;;;28.72;41.33;99215.06;124676;1093;64431;-84
2021/06/18 05:11:36;;;;;;;11.50;10.40;;;;;;;28.91;41.37;99217.95;124706;1093;64390;-83
2021/06/18 05:14:04;;;;;;;12.07;10.87;;;;;;;29.10;40.94;99225.33;124705;1093;64223;-84
2021/06/18 05:16:32;;;;;;;12.23;10.97;;;;;;;29.17;40.85;99225.28;124703;1093;64239;-84
2021/06/18 05:18:59;;;;;;;11.85;10.75;;;;;;;29.42;40.60;99222.64;124672;1093;64360;-83
2021/06/18 05:21:26;;;;;;;14.60;11.03;;;;;;;29.50;40.24;99225.97;124688;1093;64431;-82
2021/06/18 05:23:53;;;;;;;11.57;10.30;;;;;;;29.52;39.69;99221.10;124701;1093;64431;-84
2021/06/18 05:26:20;;;;;;;11.20;10.20;;;;;;;29.51;40.07;99224.89;124691;1093;64162;-84
2021/06/18 05:28:48;;;;;;;10.60;9.63;;;;;;;29.70;40.09;99225.89;124666;1093;64274;-82
2021/06/18 05:31:15;;;;;;;11.17;9.87;;;;;;;29.79;39.58;99231.95;124736;1093;64353;-82
2021/06/18 05:33:42;;;;;;;10.27;9.37;;;;;;;29.81;39.90;99221.59;124726;1096;64823;-82
2021/06/18 05:36:10;;;;;;;10.43;9.40;;;;;;;29.96;39.71;99226.75;124757;1093;64201;-83
2021/06/18 05:38:37;;;;;;;15.67;10.30;;;;;;;30.14;39.73;99231.47;124735;1093;64274;-83
2021/06/18 05:41:04;;;;;;;10.50;9.70;;;;;;;30.38;39.52;99221.56;124714;1093;64833;-82
2021/06/18 05:43:31;;;;;;;12.50;10.07;;;;;;;30.49;39.12;99228.23;124696;1093;64305;-83
2021/06/18 05:45:58;;;;;;;10.63;9.10;;;;;;;30.63;38.89;99227.05;124730;1093;64393;-83
2021/06/18 05:48:26;;;;;;;10.27;9.40;;;;;;;30.78;38.41;99229.41;124715;1093;64248;-83
2021/06/18 05:50:55;;;;;;;;;;;;;;;30.79;38.04;99222.85;124747;1093;64795;-82
2021/06/18 05:53:24;;;;;;;10.07;9.13;;;;;;;30.88;38.47;99228.92;124749;1093;64326;-81
2021/06/18 05:55:51;;;;;;;;;;;;;;;30.96;38.53;99223.10;124786;1093;64319;-83
2021/06/18 05:58:19;;;;;;;10.25;9.45;;;;;;;30.89;38.77;99227.87;124740;1093;64422;-83
2021/06/18 06:00:46;;;;;;;10.27;9.13;;;;;;;30.78;38.21;99227.52;124716;1093;64326;-83
2021/06/18 06:03:14;;;;;;;10.10;9.20;;;;;;;30.82;38.28;99223.26;124696;1096;64345;-82
2021/06/18 06:05:41;;;;;;;9.50;8.70;;;;;;;30.92;37.85;99225.48;124770;1093;64319;-82
2021/06/18 06:08:10;;;;;;;10.30;9.27;;;;;;;30.96;38.12;99228.61;124687;1093;64278;-82
2021/06/18 06:10:38;;;;;;;9.70;8.80;;;;;;;31.10;38.23;99218.27;124706;1093;64404;-81
2021/06/18 06:13:07;;;;;;;10.30;9.07;;;;;;;31.25;38.14;99214.08;124809;1096;64284;-83
2021/06/18 06:15:35;;;;;;;9.70;8.80;;;;;;;31.38;38.23;99220.48;124738;1093;64189;-83
2021/06/18 06:18:02;;;;;;;9.07;8.37;;;;;;;31.56;38.16;99223.20;124678;1093;64394;-83
2021/06/18 06:20:29;;;;;;;19.53;17.43;;;;;;;31.68;38.05;99217.75;124724;1093;64241;-84
2021/06/18 06:22:56;;;;;;;10.37;9.27;;;;;;;31.79;37.69;99222.45;124741;1093;64332;-83
2021/06/18 06:25:24;;;;;;;10.27;9.33;;;;;;;31.91;37.46;99226.08;124734;1093;64277;-83
2021/06/18 06:27:51;;;;;;;10.53;9.47;;;;;;;31.90;37.26;99224.38;124721;1093;64199;-82
2021/06/18 06:30:18;;;;;;;9.85;8.95;;;;;;;31.69;37.01;99231.27;124715;1092;64290;-83
2021/06/18 06:32:46;;;;;;;10.37;9.27;;;;;;;31.48;37.18;99234.55;124676;1093;64299;-83
2021/06/18 06:35:13;;;;;;;10.47;9.53;;;;;;;31.39;37.59;99231.29;124696;1095;64284;-83
2021/06/18 06:37:42;;;;;;;9.87;9.00;;;;;;;31.34;37.68;99230.28;124720;1093;64225;-83
2021/06/18 06:40:12;;;;;;;10.33;9.23;;;;;;;31.25;37.69;99229.73;124701;1092;64280;-82
2021/06/18 06:42:39;;;;;;;10.63;9.07;;;;;;;31.23;38.04;99231.91;124708;1093;64297;-83
2021/06/18 06:45:07;;;;;;;9.60;8.70;;;;;;;31.36;37.97;99239.13;124689;1093;64277;-83
2021/06/18 06:47:37;;;;;;;9.40;8.70;;;;;;;31.41;37.75;99231.91;124711;1093;64456;-84
2021/06/18 06:50:04;;;;;;;9.87;9.03;;;;;;;31.31;37.78;99227.95;124734;1093;64297;-81
2021/06/18 06:52:32;;;;;;;9.77;8.77;;;;;;;31.26;38.11;99234.19;124661;1096;64316;-83
2021/06/18 06:54:59;;;;;;;10.00;9.15;;;;;;;31.22;37.78;99227.45;124705;1093;64278;-83
2021/06/18 06:57:27;;;;;;;10.00;9.10;;;;;;;31.14;38.07;99217.59;124643;1093;64396;-82
2021/06/18 06:59:54;;;;;;;9.97;9.10;;;;;;;31.27;37.96;99222.92;124760;1091;64331;-85
2021/06/18 07:02:22;;;;;;;9.00;8.20;;;;;;;31.30;38.38;99226.29;124645;1093;64246;-85
2021/06/18 07:04:49;;;;;;;9.60;8.80;;;;;;;31.43;38.15;99221.47;124760;1093;64277;-86
2021/06/18 07:07:16;;;;;;;9.53;8.13;;;;;;;31.44;38.07;99223.17;124769;1093;64290;-86
2021/06/18 07:09:44;;;;;;;9.20;8.30;;;;;;;31.36;38.06;99222.59;124707;1093;64277;-85
2021/06/18 07:12:12;;;;;;;9.37;8.53;;;;;;;31.25;37.97;99218.72;124673;1093;64347;-84
2021/06/18 07:14:40;;;;;;;8.97;8.07;;;;;;;30.91;38.52;99220.20;124767;1093;64297;-85
2021/06/18 07:17:08;;;;;;;9.17;8.27;;;;;;;30.67;38.24;99214.50;124691;1096;64319;-84
2021/06/18 07:19:35;;;;;;;9.83;8.43;;;;;;;30.76;39.29;99220.56;124699;1093;64280;-85
2021/06/18 07:22:03;;;;;;;9.30;8.40;;;;;;;30.95;38.95;99221.44;124710;1093;64283;-84
2021/06/18 07:24:31;;;;;;;9.20;8.47;;;;;;;31.01;39.13;99210.33;124703;1093;64370;-86
2021/06/18 07:26:58;;;;;;;8.97;8.17;;;;;;;31.14;38.90;99217.59;124678;1093;64222;-84
2021/06/18 07:29:26;;;;;;;9.10;8.20;;;;;;;31.17;38.61;99213.53;124749;1093;64274;-84
2021/06/18 07:31:54;;;;;;;8.73;8.00;;;;;;;31.08;38.83;99209.42;124760;1094;64261;-85
2021/06/18 07:34:22;;;;;;;8.70;7.97;;;;;;;30.87;39.93;99211.57;124672;1093;64327;-84
2021/06/18 07:36:49;;;;;;;9.67;8.50;;;;;;;30.60;39.54;99211.83;124700;1093;64296;-85
2021/06/18 07:39:16;;;;;;;10.13;9.03;;;;;;;30.28;40.12;99201.98;124647;1093;64226;-85
2021/06/18 07:41:44;;;;;;;9.60;8.70;;;;;;;30.09;40.57;99206.56;124704;1093;64319;-84
2021/06/18 07:44:11;;;;;;;9.17;8.47;;;;;;;29.89;40.81;99202.08;124671;1093;64300;-85
2021/06/18 07:46:38;;;;;;;8.63;7.83;;;;;;;29.82;40.98;99206.77;124738;1093;64274;-85
2021/06/18 07:49:05;;;;;;;8.80;8.10;;;;;;;29.78;41.13;99204.69;124755;1097;64405;-85
2021/06/18 07:51:33;;;;;;;8.77;7.87;;;;;;;29.71;41.24;99210.24;124648;1093;64354;-85
2021/06/18 07:54:00;;;;;;;9.57;8.70;;;;;;;29.69;41.31;99213.20;124687;1093;64294;-82
2021/06/18 07:56:31;;;;;;;8.80;7.90;;;;;;;29.56;40.88;99201.43;124663;1093;64248;-85
2021/06/18 07:58:59;;;;;;;10.40;8.37;;;;;;;29.48;41.51;99206.11;124762;1093;64810;-86
2021/06/18 08:01:27;;;;;;;9.70;8.70;;;;;;;29.34;40.95;99220.99;124820;1093;64390;-85
2021/06/18 08:03:55;;;;;;;9.23;8.33;;;;;;;29.17;41.15;99203.33;124694;1093;64280;-87
2021/06/18 08:06:22;;;;;;;9.73;8.70;;;;;;;29.17;40.90;99217.88;124874;1093;64133;-87
2021/06/18 08:08:49;;;;;;;8.17;7.10;;;;;;;29.25;41.06;99211.30;124738;1096;64268;-87
2021/06/18 08:11:17;;;;;;;8.90;8.00;;;;;;;29.32;41.13;99204.72;124715;1093;64278;-88
2021/06/18 08:13:44;;;;;;;8.83;8.13;;;;;;;29.40;40.82;99213.77;124668;1093;64377;-89
2021/06/18 08:16:12;;;;;;;10.83;7.67;;;;;;;29.40;41.41;99200.88;124677;1096;64383;-87
2021/06/18 08:18:39;;;;;;;8.10;7.47;;;;;;;29.50;41.05;99211.40;124841;1093;64351;-87
2021/06/18 08:21:09;;;;;;;6.83;6.33;;;;;;;29.62;40.00;99211.52;124705;1093;64326;-86
2021/06/18 08:23:38;;;;;;;7.97;7.13;;;;;;;29.65;39.56;99209.23;124625;1093;64335;-87
2021/06/18 08:26:05;;;;;;;7.07;6.47;;;;;;;29.63;39.16;99204.98;124704;1096;64380;-86
2021/06/18 08:28:33;;;;;;;7.37;6.77;;;;;;;29.63;39.07;99205.82;124671;1094;64231;-86
2021/06/18 08:31:03;;;;;;;6.67;6.07;;;;;;;29.71;38.65;99202.84;124696;1093;64363;-86
2021/06/18 08:33:34;;;;;;;9.03;6.30;;;;;;;29.84;38.57;99209.31;124716;1093;64305;-86
2021/06/18 08:36:02;;;;;;;6.87;6.27;;;;;;;29.85;38.33;99206.33;124683;1093;64328;-87
2021/06/18 08:38:29;;;;;;;7.30;6.63;;;;;;;29.86;38.20;99208.03;124799;1093;64370;-86
2021/06/18 08:40:56;;;;;;;7.83;6.80;;;;;;;29.91;38.82;99199.09;124757;1093;64370;-87
2021/06/18 08:43:24;;;;;;;8.33;6.80;;;;;;;29.97;39.00;99201.80;124661;1093;64281;-87
2021/06/18 08:45:51;;;;;;;7.77;7.00;;;;;;;30.07;38.47;99194.95;124711;1092;64213;-87
2021/06/18 08:48:19;;;;;;;7.50;6.80;;;;;;;30.14;39.00;99195.73;124627;1096;64197;-87
2021/06/18 08:50:46;;;;;;;6.73;6.03;;;;;;;30.28;38.83;99191.85;124739;1094;64303;-86
2021/06/18 08:53:17;;;;;;;6.40;5.75;;;;;;;30.32;37.82;99183.98;124653;1093;64281;-86
2021/06/18 08:55:45;;;;;;;6.83;6.13;;;;;;;30.36;37.88;99182.44;124647;1093;64811;-87
2021/06/18 08:58:12;;;;;;;7.77;7.17;;;;;;;30.43;37.48;99188.72;124750;1093;64293;-86
2021/06/18 09:00:39;;;;;;;7.53;6.83;;;;;;;30.49;38.32;99176.83;124644;1093;64370;-88
2021/06/18 09:03:43;;;;;;;7.83;7.23;;;;;;;30.51;37.92;99177.42;124704;1094;64284;-87
2021/06/18 09:06:20;;;;;;;7.57;6.23;;;;;;;30.59;37.86;99181.78;124607;1093;64296;-85
2021/06/18 09:09:07;;;;;;;7.47;6.50;;;;;;;30.60;36.66;99172.48;124743;1093;64279;-87
2021/06/18 09:11:37;;;;;;;7.45;6.75;;;;;;;30.54;36.88;99176.97;124696;1093;64245;-86
2021/06/18 09:14:19;;;;;;;6.90;6.27;;;;;;;30.60;37.68;99172.48;124852;1092;64422;-87
2021/06/18 09:17:08;;;;;;;6.47;5.90;;;;;;;30.73;37.56;99166.83;124811;1096;64294;-87
2021/06/18 09:19:39;;;;;;;6.30;5.80;;;;;;;30.91;37.57;99165.98;124668;1093;64297;-86
2021/06/18 09:22:12;;;;;;;6.05;5.45;;;;;;;31.03;37.71;99163.31;124785;1092;64213;-86
2021/06/18 09:24:42;;;;;;;7.60;6.20;;;;;;;31.04;36.29;99159.47;124881;1093;64277;-88
2021/06/18 09:27:11;;;;;;;6.03;5.40;;;;;;;30.96;35.83;99160.63;124768;1093;64379;-87
2021/06/18 09:29:40;;;;;;;6.77;6.27;;;;;;;30.97;36.16;99159.58;124679;1092;64452;-87
2021/06/18 09:32:13;;;;;;;6.77;6.07;;;;;;;31.02;36.56;99156.97;124700;1093;64380;-87
2021/06/18 09:35:01;;;;;;;6.20;5.70;;;;;;;31.08;36.27;99159.88;124807;1092;64197;-87
2021/06/18 09:37:36;;;;;;;6.13;5.73;;;;;;;31.13;36.56;99157.27;124712;1093;64274;-87
2021/06/18 09:40:07;;;;;;;6.20;5.70;;;;;;;31.22;36.28;99158.61;124791;1093;64319;-87
2021/06/18 09:42:47;;;;;;;6.13;5.50;;;;;;;31.25;35.86;99161.75;124690;1093;64272;-87
2021/06/18 09:45:19;;;;;;;5.97;5.40;;;;;;;31.28;35.43;99155.77;124760;1093;64274;-87
2021/06/18 09:47:48;;;;;;;5.83;5.37;;;;;;;31.33;35.94;99157.80;124705;1093;64251;-86
2021/06/18 09:50:15;;;;;;;6.03;5.07;;;;;;;31.43;36.24;99158.11;124807;1093;64248;-87
2021/06/18 09:52:42;;;;;;;5.77;5.27;;;;;;;31.51;36.17;99147.84;124700;1093;64283;-87
2021/06/18 09:55:23;;;;;;;5.47;4.87;;;;;;;31.58;35.46;99154.10;124669;1093;64252;-86
2021/06/18 09:57:54;;;;;;;10.47;5.20;;;;;;;31.62;34.30;99152.53;124648;1093;64703;-87
2021/06/18 10:00:22;;;;;;;5.73;5.17;;;;;;;31.60;33.11;99144.52;124705;1094;64200;-86
2021/06/18 10:02:54;;;;;;;7.37;4.77;;;;;;;31.60;34.09;99141.77;124683;1096;64261;-86
2021/06/18 10:05:25;;;;;;;5.10;4.63;;;;;;;31.69;33.59;99145.02;124792;1093;64306;-87
2021/06/18 10:07:55;;;;;;;5.60;5.00;;;;;;;31.59;32.36;99139.23;124881;1093;64290;-86
2021/06/18 10:10:25;;;;;;;6.77;6.13;;;;;;;31.48;32.72;99144.48;125220;1093;64252;-85
2021/06/18 10:12:55;;;;;;;5.27;4.43;;;;;;;31.50;32.33;99133.23;125289;1093;64396;-87
2021/06/18 10:15:25;;;;;;;4.90;4.50;;;;;;;31.55;31.74;99141.64;124994;1092;64373;-86
2021/06/18 10:17:54;;;;;;;5.40;4.93;;;;;;;31.53;32.32;99137.44;124854;1093;64279;-87
2021/06/18 10:20:27;;;;;;;5.17;4.77;;;;;;;31.57;32.64;99135.88;124876;1093;64296;-88
2021/06/18 10:23:10;;;;;;;5.00;4.50;;;;;;;31.59;32.67;99139.23;124714;1096;64390;-85
2021/06/18 10:25:44;;;;;;;5.30;4.93;;;;;;;31.70;33.19;99139.28;124756;1093;64417;-87
2021/06/18 10:28:19;;;;;;;5.20;4.70;;;;;;;31.75;31.85;99137.71;124761;1092;64325;-87
2021/06/18 10:30:51;;;;;;;5.13;4.50;;;;;;;31.62;31.40;99136.84;124776;1093;64248;-87
2021/06/18 10:33:28;;;;;;;5.50;4.77;;;;;;;31.61;31.37;99132.41;124725;1096;64360;-87
2021/06/18 10:36:18;;;;;;;5.43;4.87;;;;;;;31.62;31.83;99131.33;124710;1093;64772;-87
2021/06/18 10:38:48;;;;;;;5.23;4.87;;;;;;;31.76;32.92;99137.48;124852;1093;64287;-87
2021/06/18 10:41:18;;;;;;;5.40;4.90;;;;;;;31.81;32.78;99132.11;124795;1093;64198;-86
2021/06/18 10:43:51;;;;;;;5.30;4.90;;;;;;;31.84;32.92;99128.03;124746;1093;64372;-87
2021/06/18 10:46:28;;;;;;;5.10;4.40;;;;;;;31.95;32.84;99121.72;124832;1093;64291;-85
2021/06/18 10:49:14;;;;;;;4.80;4.50;;;;;;;32.01;32.32;99122.67;124824;1093;64245;-88
2021/06/18 10:51:46;;;;;;;4.87;4.47;;;;;;;32.02;31.37;99127.09;124855;1093;64373;-88
2021/06/18 10:54:26;;;;;;;5.15;4.75;;;;;;;32.00;31.59;99121.84;124731;1093;64233;-87
2021/06/18 10:56:58;;;;;;;7.37;6.03;;;;;;;31.99;31.36;99113.80;124742;1093;64363;-87
2021/06/18 10:59:35;;;;;;;6.00;4.57;;;;;;;31.91;30.89;99115.82;124786;1093;64335;-87
2021/06/18 11:02:30;;;;;;;4.80;4.50;;;;;;;31.88;29.95;99116.27;124785;1093;64366;-88
2021/06/18 11:05:00;;;;;;;4.97;4.47;;;;;;;31.73;30.17;99120.56;124724;1093;64417;-87
2021/06/18 11:07:40;;;;;;;5.53;5.07;;;;;;;31.70;29.43;99122.75;124855;1093;64277;-86
2021/06/18 11:10:28;;;;;;;4.50;4.20;;;;;;;31.58;29.71;99121.04;124876;1093;64372;-88
2021/06/18 11:13:01;;;;;;;5.03;4.00;;;;;;;31.58;28.86;99123.80;124893;1096;64508;-86
2021/06/18 11:15:28;;;;;;;4.63;4.23;;;;;;;31.58;29.16;99115.53;124872;1093;64347;-86
2021/06/18 11:18:02;;;;;;;4.70;4.27;;;;;;;31.70;29.86;99116.37;124984;1093;64306;-87
2021/06/18 11:20:33;;;;;;;5.25;4.55;;;;;;;31.70;29.06;99119.13;124882;1093;64199;-87
2021/06/18 11:23:09;;;;;;;5.00;4.50;;;;;;;31.53;28.70;99116.23;124887;1093;64275;-87
2021/06/18 11:25:36;;;;;;;5.00;4.60;;;;;;;31.44;28.97;99112.98;124798;1093;64357;-86
2021/06/18 11:28:19;;;;;;;4.50;4.03;;;;;;;31.41;28.80;99104.34;124761;1093;64279;-88
2021/06/18 11:30:55;;;;;;;4.90;4.50;;;;;;;31.44;29.52;99109.40;124819;1093;64198;-87
2021/06/18 11:36:37;;;;;;;5.93;5.17;;;;;;;31.45;30.26;99100.05;124879;1093;64226;-87